Terminal Aerodrome Forecast
Issued by NWS

Home | Current Version | Previous Version | Text Only | Print | Product List | Glossary On
Versions: 1 2 3 4 5 6 7 8 9 10 11 12 13 14 15 16 17 18 19 20 21 22 23 24 25 26 27 28 29
000
FTUS44 KHGX 012331
TAFIAH
TAF
KIAH 012331Z 0200/0306 11013KT P6SM VCTS SCT007 BKN018CB OVC250
      TEMPO 0200/0201 35015G25KT 3SM TSRA BR BKN007 BKN015CB
     FM020400 07008KT P6SM BKN015 BKN050
     FM020800 02012KT P6SM VCTS SCT008CB OVC015
     FM021600 36012G20KT P6SM VCSH BKN018 OVC050
     FM022000 35015KT P6SM BKN050
     FM030100 01007KT P6SM BKN100=

USA.gov is the U.S. government's official web portal to all federal, state and local government web resources and services.